sensor_id;sensor_type;location;lat;lon;timestamp;pressure;altitude;pressure_sealevel;temperature;humidity
13013;BME280;22580;57.670;12.006;2023-04-16T00:00:14;102108.72;;;19.25;46.10
13013;BME280;22580;57.670;12.006;2023-04-16T00:02:41;102099.25;;;19.20;46.31
13013;BME280;22580;57.670;12.006;2023-04-16T00:05:09;102108.31;;;19.30;46.03
13013;BME280;22580;57.670;12.006;2023-04-16T00:07:36;102104.75;;;19.50;45.40
13013;BME280;22580;57.670;12.006;2023-04-16T00:10:04;102068.13;;;19.35;45.45
13013;BME280;22580;57.670;12.006;2023-04-16T00:12:32;102084.34;;;19.05;46.46
13013;BME280;22580;57.670;12.006;2023-04-16T00:14:59;102107.66;;;19.17;46.27
13013;BME280;22580;57.670;12.006;2023-04-16T00:17:25;102076.22;;;19.05;46.20
13013;BME280;22580;57.670;12.006;2023-04-16T00:19:52;102104.41;;;19.23;46.07
13013;BME280;22580;57.670;12.006;2023-04-16T00:22:21;102084.91;;;19.29;46.04
13013;BME280;22580;57.670;12.006;2023-04-16T00:24:48;102094.09;;;19.17;46.30
13013;BME280;22580;57.670;12.006;2023-04-16T00:27:14;102103.44;;;19.24;46.06
13013;BME280;22580;57.670;12.006;2023-04-16T00:29:41;102105.34;;;19.33;46.02
13013;BME280;22580;57.670;12.006;2023-04-16T00:32:08;102101.06;;;19.30;45.79
13013;BME280;22580;57.670;12.006;2023-04-16T00:34:35;102104.16;;;19.26;45.96
13013;BME280;22580;57.670;12.006;2023-04-16T00:37:02;102100.13;;;19.41;45.46
13013;BME280;22580;57.670;12.006;2023-04-16T00:39:30;102076.38;;;19.13;45.56
13013;BME280;22580;57.670;12.006;2023-04-16T00:41:57;102042.03;;;18.92;45.58
13013;BME280;22580;57.670;12.006;2023-04-16T00:44:24;102069.63;;;19.28;45.13
13013;BME280;22580;57.670;12.006;2023-04-16T00:46:51;102076.72;;;19.19;45.01
13013;BME280;22580;57.670;12.006;2023-04-16T00:49:18;102103.78;;;19.51;45.10
13013;BME280;22580;57.670;12.006;2023-04-16T00:51:45;102096.25;;;19.55;44.97
13013;BME280;22580;57.670;12.006;2023-04-16T00:54:12;102107.00;;;19.45;44.70
13013;BME280;22580;57.670;12.006;2023-04-16T00:56:41;102111.38;;;19.57;44.57
13013;BME280;22580;57.670;12.006;2023-04-16T00:59:08;102088.97;;;18.61;46.71
13013;BME280;22580;57.670;12.006;2023-04-16T01:01:35;102066.19;;;18.63;46.42
13013;BME280;22580;57.670;12.006;2023-04-16T01:04:04;102109.91;;;19.12;45.91
13013;BME280;22580;57.670;12.006;2023-04-16T01:06:32;102102.44;;;19.25;45.35
13013;BME280;22580;57.670;12.006;2023-04-16T01:08:59;102117.66;;;18.95;46.04
13013;BME280;22580;57.670;12.006;2023-04-16T01:11:26;102116.56;;;19.08;45.49
13013;BME280;22580;57.670;12.006;2023-04-16T01:13:56;102108.44;;;18.87;45.81
13013;BME280;22580;57.670;12.006;2023-04-16T01:16:22;102099.13;;;18.80;45.90
13013;BME280;22580;57.670;12.006;2023-04-16T01:18:51;102116.22;;;18.80;46.09
13013;BME280;22580;57.670;12.006;2023-04-16T01:21:19;102125.84;;;18.73;46.08
13013;BME280;22580;57.670;12.006;2023-04-16T01:23:46;102129.47;;;18.62;46.39
13013;BME280;22580;57.670;12.006;2023-04-16T01:26:14;102131.50;;;18.81;46.09
13013;BME280;22580;57.670;12.006;2023-04-16T01:28:42;102111.03;;;18.34;46.76
13013;BME280;22580;57.670;12.006;2023-04-16T01:31:09;102098.06;;;18.49;46.37
13013;BME280;22580;57.670;12.006;2023-04-16T01:33:36;102133.28;;;18.38;46.95
13013;BME280;22580;57.670;12.006;2023-04-16T01:36:05;102145.56;;;18.53;46.41
13013;BME280;22580;57.670;12.006;2023-04-16T01:38:33;102135.22;;;18.69;46.22
13013;BME280;22580;57.670;12.006;2023-04-16T01:41:00;102109.41;;;18.43;46.56
13013;BME280;22580;57.670;12.006;2023-04-16T01:43:27;102096.34;;;18.48;46.16
13013;BME280;22580;57.670;12.006;2023-04-16T01:46:06;102095.91;;;18.20;46.44
13013;BME280;22580;57.670;12.006;2023-04-16T01:48:36;102134.97;;;18.07;46.98
13013;BME280;22580;57.670;12.006;2023-04-16T01:51:04;102143.81;;;17.86;47.41
13013;BME280;22580;57.670;12.006;2023-04-16T01:53:33;102131.50;;;18.05;47.01
13013;BME280;22580;57.670;12.006;2023-04-16T01:56:00;102122.22;;;18.41;45.98
13013;BME280;22580;57.670;12.006;2023-04-16T01:58:28;102131.56;;;18.48;45.58
13013;BME280;22580;57.670;12.006;2023-04-16T02:00:56;102132.03;;;18.53;45.57
13013;BME280;22580;57.670;12.006;2023-04-16T02:03:24;102126.16;;;18.37;45.46
13013;BME280;22580;57.670;12.006;2023-04-16T02:05:51;102142.66;;;18.22;45.91
13013;BME280;22580;57.670;12.006;2023-04-16T02:08:19;102127.66;;;18.29;45.51
13013;BME280;22580;57.670;12.006;2023-04-16T02:10:48;102121.78;;;18.02;45.88
13013;BME280;22580;57.670;12.006;2023-04-16T02:13:15;102141.78;;;18.44;44.88
13013;BME280;22580;57.670;12.006;2023-04-16T02:15:44;102136.69;;;18.73;44.36
13013;BME280;22580;57.670;12.006;2023-04-16T02:18:12;102142.28;;;18.60;44.21
13013;BME280;22580;57.670;12.006;2023-04-16T02:20:39;102132.56;;;18.24;44.58
13013;BME280;22580;57.670;12.006;2023-04-16T02:23:08;102109.56;;;17.52;45.87
13013;BME280;22580;57.670;12.006;2023-04-16T02:25:38;102127.81;;;17.83;45.27
13013;BME280;22580;57.670;12.006;2023-04-16T02:28:08;102130.50;;;17.72;45.53
13013;BME280;22580;57.670;12.006;2023-04-16T02:30:36;102137.03;;;17.81;45.58
13013;BME280;22580;57.670;12.006;2023-04-16T02:33:05;102117.84;;;17.84;45.25
13013;BME280;22580;57.670;12.006;2023-04-16T02:35:32;102124.13;;;17.95;44.91
13013;BME280;22580;57.670;12.006;2023-04-16T02:38:00;102130.66;;;18.04;44.67
13013;BME280;22580;57.670;12.006;2023-04-16T02:40:27;102126.34;;;18.01;44.50
13013;BME280;22580;57.670;12.006;2023-04-16T02:42:54;102128.91;;;17.81;44.53
13013;BME280;22580;57.670;12.006;2023-04-16T02:45:23;102078.72;;;17.32;45.05
13013;BME280;22580;57.670;12.006;2023-04-16T02:47:50;102111.16;;;17.54;44.92
13013;BME280;22580;57.670;12.006;2023-04-16T02:50:18;102121.22;;;17.41;45.16
13013;BME280;22580;57.670;12.006;2023-04-16T02:52:45;102124.94;;;17.62;44.66
13013;BME280;22580;57.670;12.006;2023-04-16T02:55:11;102128.38;;;17.64;44.45
13013;BME280;22580;57.670;12.006;2023-04-16T02:57:38;102119.38;;;17.30;44.49
13013;BME280;22580;57.670;12.006;2023-04-16T03:00:08;102075.88;;;16.16;47.15
13013;BME280;22580;57.670;12.006;2023-04-16T03:02:36;102122.03;;;17.19;45.44
13013;BME280;22580;57.670;12.006;2023-04-16T03:05:04;102136.69;;;16.32;47.64
13013;BME280;22580;57.670;12.006;2023-04-16T03:07:31;102132.69;;;16.38;47.69
13013;BME280;22580;57.670;12.006;2023-04-16T03:09:58;102127.94;;;16.65;47.10
13013;BME280;22580;57.670;12.006;2023-04-16T03:12:25;102136.81;;;16.55;47.41
13013;BME280;22580;57.670;12.006;2023-04-16T03:14:52;102138.91;;;16.99;45.90
13013;BME280;22580;57.670;12.006;2023-04-16T03:17:19;102147.53;;;16.80;46.25
13013;BME280;22580;57.670;12.006;2023-04-16T03:19:47;102131.06;;;16.35;46.63
13013;BME280;22580;57.670;12.006;2023-04-16T03:22:15;102135.38;;;16.38;46.59
13013;BME280;22580;57.670;12.006;2023-04-16T03:24:42;102094.41;;;16.20;46.71
13013;BME280;22580;57.670;12.006;2023-04-16T03:27:09;102127.09;;;16.28;47.28
13013;BME280;22580;57.670;12.006;2023-04-16T03:29:36;102140.84;;;16.00;48.23
13013;BME280;22580;57.670;12.006;2023-04-16T03:32:03;102142.75;;;16.23;47.16
13013;BME280;22580;57.670;12.006;2023-04-16T03:34:30;102138.31;;;16.35;47.06
13013;BME280;22580;57.670;12.006;2023-04-16T03:36:58;102144.56;;;16.72;46.36
13013;BME280;22580;57.670;12.006;2023-04-16T03:39:25;102145.28;;;16.01;47.50
13013;BME280;22580;57.670;12.006;2023-04-16T03:41:52;102155.97;;;15.90;47.58
13013;BME280;22580;57.670;12.006;2023-04-16T03:44:19;102141.91;;;16.83;45.01
13013;BME280;22580;57.670;12.006;2023-04-16T03:46:47;102140.53;;;16.78;45.17
13013;BME280;22580;57.670;12.006;2023-04-16T03:49:14;102151.59;;;17.10;43.89
13013;BME280;22580;57.670;12.006;2023-04-16T03:51:42;102116.28;;;16.65;44.33
13013;BME280;22580;57.670;12.006;2023-04-16T03:54:10;102144.56;;;16.35;45.13
13013;BME280;22580;57.670;12.006;2023-04-16T03:56:39;102153.31;;;16.26;45.77
13013;BME280;22580;57.670;12.006;2023-04-16T03:59:06;102161.47;;;15.76;46.19
13013;BME280;22580;57.670;12.006;2023-04-16T04:01:33;102154.19;;;16.51;44.65
13013;BME280;22580;57.670;12.006;2023-04-16T04:04:00;102157.72;;;16.64;44.32
13013;BME280;22580;57.670;12.006;2023-04-16T04:06:28;102124.81;;;16.35;44.35
13013;BME280;22580;57.670;12.006;2023-04-16T04:09:07;102160.22;;;17.15;43.46
13013;BME280;22580;57.670;12.006;2023-04-16T04:11:36;102148.75;;;17.46;42.74
13013;BME280;22580;57.670;12.006;2023-04-16T04:14:04;102154.00;;;17.25;42.44
13013;BME280;22580;57.670;12.006;2023-04-16T04:16:31;102152.34;;;17.12;42.81
13013;BME280;22580;57.670;12.006;2023-04-16T04:18:58;102136.97;;;16.77;43.10
13013;BME280;22580;57.670;12.006;2023-04-16T04:21:25;102152.47;;;16.86;43.20
13013;BME280;22580;57.670;12.006;2023-04-16T04:23:52;102142.13;;;16.80;42.60
13013;BME280;22580;57.670;12.006;2023-04-16T04:26:19;102155.25;;;16.61;43.28
13013;BME280;22580;57.670;12.006;2023-04-16T04:28:48;102141.56;;;16.88;42.67
13013;BME280;22580;57.670;12.006;2023-04-16T04:31:14;102151.53;;;17.33;41.82
13013;BME280;22580;57.670;12.006;2023-04-16T04:33:41;102150.44;;;17.71;40.92
13013;BME280;22580;57.670;12.006;2023-04-16T04:36:08;102123.78;;;17.43;40.04
13013;BME280;22580;57.670;12.006;2023-04-16T04:38:35;102149.13;;;17.53;40.67
13013;BME280;22580;57.670;12.006;2023-04-16T04:41:02;102144.09;;;17.48;40.99
13013;BME280;22580;57.670;12.006;2023-04-16T04:43:32;102138.69;;;17.48;40.89
13013;BME280;22580;57.670;12.006;2023-04-16T04:46:02;102162.09;;;17.72;40.61
13013;BME280;22580;57.670;12.006;2023-04-16T04:48:29;102163.00;;;17.94;40.13
13013;BME280;22580;57.670;12.006;2023-04-16T04:50:55;102157.38;;;17.62;40.49
13013;BME280;22580;57.670;12.006;2023-04-16T04:53:22;102137.44;;;17.41;40.60
13013;BME280;22580;57.670;12.006;2023-04-16T04:55:49;102169.25;;;17.73;40.35
13013;BME280;22580;57.670;12.006;2023-04-16T04:58:16;102166.91;;;17.68;40.52
13013;BME280;22580;57.670;12.006;2023-04-16T05:00:43;102171.66;;;17.64;40.60
13013;BME280;22580;57.670;12.006;2023-04-16T05:03:11;102168.69;;;17.56;40.63
13013;BME280;22580;57.670;12.006;2023-04-16T05:05:38;102172.56;;;17.41;40.97
13013;BME280;22580;57.670;12.006;2023-04-16T05:08:06;102157.13;;;17.08;41.13
13013;BME280;22580;57.670;12.006;2023-04-16T05:10:32;102169.97;;;17.28;41.12
13013;BME280;22580;57.670;12.006;2023-04-16T05:12:59;102155.09;;;17.23;40.92
13013;BME280;22580;57.670;12.006;2023-04-16T05:15:26;102175.88;;;16.98;41.21
13013;BME280;22580;57.670;12.006;2023-04-16T05:17:53;102142.28;;;17.14;41.17
13013;BME280;22580;57.670;12.006;2023-04-16T05:20:22;102155.38;;;17.31;41.91
13013;BME280;22580;57.670;12.006;2023-04-16T05:22:49;102162.97;;;17.37;41.31
13013;BME280;22580;57.670;12.006;2023-04-16T05:25:16;102176.88;;;17.90;39.76
13013;BME280;22580;57.670;12.006;2023-04-16T05:27:43;102179.69;;;17.77;40.11
13013;BME280;22580;57.670;12.006;2023-04-16T05:30:11;102183.84;;;17.35;40.35
13013;BME280;22580;57.670;12.006;2023-04-16T05:32:38;102184.38;;;17.40;41.28
13013;BME280;22580;57.670;12.006;2023-04-16T05:35:06;102160.75;;;17.77;39.96
13013;BME280;22580;57.670;12.006;2023-04-16T05:37:35;102183.03;;;17.92;39.65
13013;BME280;22580;57.670;12.006;2023-04-16T05:40:02;102180.22;;;18.05;39.64
13013;BME280;22580;57.670;12.006;2023-04-16T05:42:29;102181.19;;;18.26;38.91
13013;BME280;22580;57.670;12.006;2023-04-16T05:44:56;102189.66;;;18.55;39.12
13013;BME280;22580;57.670;12.006;2023-04-16T05:47:23;102177.84;;;18.45;37.38
13013;BME280;22580;57.670;12.006;2023-04-16T05:49:50;102177.22;;;18.52;38.26
13013;BME280;22580;57.670;12.006;2023-04-16T05:52:17;102165.38;;;18.76;37.88
13013;BME280;22580;57.670;12.006;2023-04-16T05:54:46;102177.00;;;18.98;37.02
13013;BME280;22580;57.670;12.006;2023-04-16T05:57:13;102174.47;;;18.86;37.08
13013;BME280;22580;57.670;12.006;2023-04-16T05:59:40;102182.03;;;18.38;37.51
13013;BME280;22580;57.670;12.006;2023-04-16T06:02:07;102180.78;;;18.42;37.80
13013;BME280;22580;57.670;12.006;2023-04-16T06:04:33;102182.78;;;18.62;37.23
13013;BME280;22580;57.670;12.006;2023-04-16T06:07:01;102190.38;;;18.57;37.55
13013;BME280;22580;57.670;12.006;2023-04-16T06:09:28;102188.03;;;18.75;36.69
13013;BME280;22580;57.670;12.006;2023-04-16T06:11:57;102192.00;;;18.26;37.26
13013;BME280;22580;57.670;12.006;2023-04-16T06:14:24;102189.94;;;17.96;37.31
13013;BME280;22580;57.670;12.006;2023-04-16T06:16:51;102204.88;;;17.66;37.91
13013;BME280;22580;57.670;12.006;2023-04-16T06:19:18;102191.50;;;17.41;38.44
13013;BME280;22580;57.670;12.006;2023-04-16T06:21:45;102201.91;;;16.99;39.29
13013;BME280;22580;57.670;12.006;2023-04-16T06:24:12;102205.16;;;17.75;39.12
13013;BME280;22580;57.670;12.006;2023-04-16T06:26:39;102198.53;;;17.55;38.42
13013;BME280;22580;57.670;12.006;2023-04-16T06:29:08;102192.41;;;17.64;38.53
13013;BME280;22580;57.670;12.006;2023-04-16T06:31:35;102200.50;;;17.88;37.81
13013;BME280;22580;57.670;12.006;2023-04-16T06:34:02;102202.78;;;17.35;38.48
13013;BME280;22580;57.670;12.006;2023-04-16T06:36:29;102204.28;;;17.39;38.82
13013;BME280;22580;57.670;12.006;2023-04-16T06:38:56;102207.53;;;17.55;38.53
13013;BME280;22580;57.670;12.006;2023-04-16T06:41:23;102205.00;;;17.41;38.63
13013;BME280;22580;57.670;12.006;2023-04-16T06:43:51;102208.47;;;17.43;38.57
13013;BME280;22580;57.670;12.006;2023-04-16T06:46:19;102203.63;;;17.00;38.82
13013;BME280;22580;57.670;12.006;2023-04-16T06:48:46;102196.19;;;17.50;38.33
13013;BME280;22580;57.670;12.006;2023-04-16T06:51:13;102160.97;;;17.17;38.86
13013;BME280;22580;57.670;12.006;2023-04-16T06:53:40;102200.22;;;17.68;38.25
13013;BME280;22580;57.670;12.006;2023-04-16T06:56:08;102190.56;;;17.18;38.92
13013;BME280;22580;57.670;12.006;2023-04-16T06:58:35;102216.03;;;17.62;38.55
13013;BME280;22580;57.670;12.006;2023-04-16T07:01:02;102197.63;;;17.32;38.63
13013;BME280;22580;57.670;12.006;2023-04-16T07:03:31;102211.78;;;17.47;38.49
13013;BME280;22580;57.670;12.006;2023-04-16T07:05:58;102222.38;;;16.91;39.43
13013;BME280;22580;57.670;12.006;2023-04-16T07:08:25;102225.19;;;17.13;39.46
13013;BME280;22580;57.670;12.006;2023-04-16T07:10:52;102209.31;;;17.32;38.39
13013;BME280;22580;57.670;12.006;2023-04-16T07:13:19;102208.41;;;17.21;39.03
13013;BME280;22580;57.670;12.006;2023-04-16T07:15:47;102215.00;;;17.52;38.72
13013;BME280;22580;57.670;12.006;2023-04-16T07:18:14;102181.34;;;17.56;37.99
13013;BME280;22580;57.670;12.006;2023-04-16T07:20:43;102230.09;;;17.67;38.04
13013;BME280;22580;57.670;12.006;2023-04-16T07:23:10;102189.84;;;16.92;38.72
13013;BME280;22580;57.670;12.006;2023-04-16T07:25:38;102230.38;;;17.51;38.21
13013;BME280;22580;57.670;12.006;2023-04-16T07:28:06;102212.19;;;17.88;37.43
13013;BME280;22580;57.670;12.006;2023-04-16T07:30:33;102213.53;;;18.27;37.63
13013;BME280;22580;57.670;12.006;2023-04-16T07:33:01;102224.97;;;18.87;38.07
13013;BME280;22580;57.670;12.006;2023-04-16T07:35:28;102203.59;;;19.05;36.41
13013;BME280;22580;57.670;12.006;2023-04-16T07:37:56;102221.38;;;19.18;36.35
13013;BME280;22580;57.670;12.006;2023-04-16T07:40:23;102221.41;;;19.07;35.96
13013;BME280;22580;57.670;12.006;2023-04-16T07:42:50;102221.59;;;19.26;35.26
13013;BME280;22580;57.670;12.006;2023-04-16T07:45:18;102215.63;;;19.12;35.48
13013;BME280;22580;57.670;12.006;2023-04-16T07:47:45;102208.34;;;19.12;35.34
13013;BME280;22580;57.670;12.006;2023-04-16T07:50:12;102148.06;;;18.45;35.67
13013;BME280;22580;57.670;12.006;2023-04-16T07:52:39;102202.75;;;19.04;35.43
13013;BME280;22580;57.670;12.006;2023-04-16T07:55:08;102225.72;;;18.78;35.91
13013;BME280;22580;57.670;12.006;2023-04-16T07:57:36;102214.03;;;17.88;37.44
13013;BME280;22580;57.670;12.006;2023-04-16T08:00:03;102222.53;;;18.17;37.21
13013;BME280;22580;57.670;12.006;2023-04-16T08:02:31;102224.38;;;17.59;37.85
13013;BME280;22580;57.670;12.006;2023-04-16T08:04:58;102229.41;;;17.63;38.39
13013;BME280;22580;57.670;12.006;2023-04-16T08:07:25;102230.00;;;17.91;37.78
13013;BME280;22580;57.670;12.006;2023-04-16T08:09:52;102223.53;;;18.16;37.71
13013;BME280;22580;57.670;12.006;2023-04-16T08:12:21;102237.28;;;18.80;36.36
13013;BME280;22580;57.670;12.006;2023-04-16T08:14:48;102234.19;;;18.84;36.53
13013;BME280;22580;57.670;12.006;2023-04-16T08:17:15;102235.72;;;18.66;36.65
13013;BME280;22580;57.670;12.006;2023-04-16T08:19:42;102249.34;;;18.53;36.63
13013;BME280;22580;57.670;12.006;2023-04-16T08:22:10;102247.50;;;18.87;36.33
13013;BME280;22580;57.670;12.006;2023-04-16T08:24:37;102258.38;;;18.65;36.56
13013;BME280;22580;57.670;12.006;2023-04-16T08:27:04;102256.38;;;18.45;36.91
13013;BME280;22580;57.670;12.006;2023-04-16T08:29:32;102266.63;;;18.63;36.91
13013;BME280;22580;57.670;12.006;2023-04-16T08:31:59;102269.13;;;17.98;37.57
13013;BME280;22580;57.670;12.006;2023-04-16T08:34:28;102265.03;;;17.81;37.71
13013;BME280;22580;57.670;12.006;2023-04-16T08:36:55;102275.66;;;17.95;37.69
13013;BME280;22580;57.670;12.006;2023-04-16T08:39:22;102280.19;;;17.36;38.06
13013;BME280;22580;57.670;12.006;2023-04-16T08:41:51;102260.72;;;17.79;37.74
13013;BME280;22580;57.670;12.006;2023-04-16T08:44:21;102234.97;;;17.27;38.18
13013;BME280;22580;57.670;12.006;2023-04-16T08:46:53;102273.19;;;17.92;39.52
13013;BME280;22580;57.670;12.006;2023-04-16T08:49:23;102275.19;;;18.91;39.50
13013;BME280;22580;57.670;12.006;2023-04-16T08:51:51;102282.28;;;19.46;37.64
13013;BME280;22580;57.670;12.006;2023-04-16T08:54:27;102279.31;;;19.49;36.40
13013;BME280;22580;57.670;12.006;2023-04-16T08:56:57;102276.16;;;19.76;36.48
13013;BME280;22580;57.670;12.006;2023-04-16T08:59:25;102271.53;;;19.88;36.01
13013;BME280;22580;57.670;12.006;2023-04-16T09:01:57;102279.69;;;19.97;35.99
13013;BME280;22580;57.670;12.006;2023-04-16T09:04:25;102285.16;;;19.77;36.24
13013;BME280;22580;57.670;12.006;2023-04-16T09:06:54;102280.50;;;20.09;36.66
13013;BME280;22580;57.670;12.006;2023-04-16T09:09:22;102276.75;;;20.31;36.08
13013;BME280;22580;57.670;12.006;2023-04-16T09:11:52;102297.22;;;20.56;35.93
13013;BME280;22580;57.670;12.006;2023-04-16T09:14:19;102262.34;;;20.61;35.65
13013;BME280;22580;57.670;12.006;2023-04-16T09:16:47;102275.84;;;20.82;35.67
13013;BME280;22580;57.670;12.006;2023-04-16T09:19:15;102277.84;;;20.70;34.66
13013;BME280;22580;57.670;12.006;2023-04-16T09:21:45;102297.16;;;20.77;34.26
13013;BME280;22580;57.670;12.006;2023-04-16T09:24:12;102287.47;;;20.93;35.72
13013;BME280;22580;57.670;12.006;2023-04-16T09:26:40;102292.38;;;21.09;33.93
13013;BME280;22580;57.670;12.006;2023-04-16T09:29:07;102291.19;;;20.92;34.18
13013;BME280;22580;57.670;12.006;2023-04-16T09:31:35;102276.78;;;21.11;34.04
13013;BME280;22580;57.670;12.006;2023-04-16T09:34:03;102290.50;;;21.00;33.93
13013;BME280;22580;57.670;12.006;2023-04-16T09:36:32;102290.59;;;20.89;33.48
13013;BME280;22580;57.670;12.006;2023-04-16T09:39:00;102290.16;;;20.74;33.80
13013;BME280;22580;57.670;12.006;2023-04-16T09:41:28;102281.72;;;20.77;34.21
13013;BME280;22580;57.670;12.006;2023-04-16T09:43:56;102293.00;;;20.73;35.10
13013;BME280;22580;57.670;12.006;2023-04-16T09:46:24;102298.13;;;20.66;33.33
13013;BME280;22580;57.670;12.006;2023-04-16T09:48:55;102263.44;;;20.49;33.65
13013;BME280;22580;57.670;12.006;2023-04-16T09:51:22;102274.69;;;19.93;34.86
13013;BME280;22580;57.670;12.006;2023-04-16T09:53:52;102291.84;;;19.73;34.97
13013;BME280;22580;57.670;12.006;2023-04-16T09:56:22;102264.41;;;19.55;35.65
13013;BME280;22580;57.670;12.006;2023-04-16T09:58:55;102286.38;;;20.14;34.58
13013;BME280;22580;57.670;12.006;2023-04-16T10:01:23;102283.88;;;20.43;34.32
13013;BME280;22580;57.670;12.006;2023-04-16T10:03:53;102283.00;;;20.83;34.00
13013;BME280;22580;57.670;12.006;2023-04-16T10:06:22;102278.56;;;21.32;33.24
13013;BME280;22580;57.670;12.006;2023-04-16T10:08:52;102278.19;;;21.06;33.86
13013;BME280;22580;57.670;12.006;2023-04-16T10:11:21;102266.53;;;21.44;32.92
13013;BME280;22580;57.670;12.006;2023-04-16T10:13:48;102254.19;;;21.20;32.61
13013;BME280;22580;57.670;12.006;2023-04-16T10:16:15;102278.22;;;20.56;33.38
13013;BME280;22580;57.670;12.006;2023-04-16T10:18:43;102285.34;;;20.57;33.53
13013;BME280;22580;57.670;12.006;2023-04-16T10:21:11;102286.78;;;21.01;32.99
13013;BME280;22580;57.670;12.006;2023-04-16T10:23:40;102295.47;;;21.35;31.90
13013;BME280;22580;57.670;12.006;2023-04-16T10:26:09;102296.50;;;21.04;32.29
13013;BME280;22580;57.670;12.006;2023-04-16T10:28:36;102281.34;;;21.11;32.51
13013;BME280;22580;57.670;12.006;2023-04-16T10:31:04;102284.03;;;21.61;31.73
13013;BME280;22580;57.670;12.006;2023-04-16T10:33:34;102286.72;;;21.22;31.71
13013;BME280;22580;57.670;12.006;2023-04-16T10:36:09;102292.44;;;21.38;31.38
13013;BME280;22580;57.670;12.006;2023-04-16T10:38:40;102287.72;;;21.40;31.89
13013;BME280;22580;57.670;12.006;2023-04-16T10:41:08;102282.66;;;21.16;31.93
13013;BME280;22580;57.670;12.006;2023-04-16T10:43:39;102274.78;;;22.00;31.36
13013;BME280;22580;57.670;12.006;2023-04-16T10:46:20;102276.22;;;21.95;30.90
13013;BME280;22580;57.670;12.006;2023-04-16T10:48:49;102269.53;;;22.45;29.73
13013;BME280;22580;57.670;12.006;2023-04-16T10:51:24;102262.47;;;21.86;30.19
13013;BME280;22580;57.670;12.006;2023-04-16T10:53:53;102274.69;;;20.75;31.46
13013;BME280;22580;57.670;12.006;2023-04-16T10:56:25;102249.66;;;20.71;31.70
13013;BME280;22580;57.670;12.006;2023-04-16T10:58:53;102275.13;;;21.58;31.03
13013;BME280;22580;57.670;12.006;2023-04-16T11:01:29;102253.88;;;21.81;30.17
13013;BME280;22580;57.670;12.006;2023-04-16T11:04:00;102269.09;;;20.67;31.85
13013;BME280;22580;57.670;12.006;2023-04-16T11:07:03;102237.41;;;20.46;32.13
13013;BME280;22580;57.670;12.006;2023-04-16T11:09:50;102281.16;;;21.52;31.17
13013;BME280;22580;57.670;12.006;2023-04-16T11:12:20;102272.06;;;22.00;30.30
13013;BME280;22580;57.670;12.006;2023-04-16T11:14:48;102243.22;;;22.27;29.96
13013;BME280;22580;57.670;12.006;2023-04-16T11:17:20;102274.81;;;21.23;31.39
13013;BME280;22580;57.670;12.006;2023-04-16T11:19:48;102229.59;;;20.32;32.33
13013;BME280;22580;57.670;12.006;2023-04-16T11:22:16;102229.16;;;21.26;31.03
13013;BME280;22580;57.670;12.006;2023-04-16T11:24:44;102269.03;;;22.22;30.17
13013;BME280;22580;57.670;12.006;2023-04-16T11:27:12;102267.66;;;22.73;29.92
13013;BME280;22580;57.670;12.006;2023-04-16T11:29:41;102271.06;;;21.91;30.46
13013;BME280;22580;57.670;12.006;2023-04-16T11:32:08;102273.41;;;21.57;31.21
13013;BME280;22580;57.670;12.006;2023-04-16T11:34:42;102262.94;;;21.72;30.84
13013;BME280;22580;57.670;12.006;2023-04-16T11:37:10;102258.00;;;22.14;30.83
13013;BME280;22580;57.670;12.006;2023-04-16T11:39:47;102268.13;;;22.96;30.10
13013;BME280;22580;57.670;12.006;2023-04-16T11:42:18;102266.28;;;23.14;29.61
13013;BME280;22580;57.670;12.006;2023-04-16T11:44:50;102266.16;;;22.88;29.65
13013;BME280;22580;57.670;12.006;2023-04-16T11:47:18;102265.38;;;22.69;29.96
13013;BME280;22580;57.670;12.006;2023-04-16T11:49:45;102232.31;;;23.09;29.23
13013;BME280;22580;57.670;12.006;2023-04-16T11:52:12;102255.28;;;23.06;29.74
13013;BME280;22580;57.670;12.006;2023-04-16T11:54:39;102262.81;;;23.40;29.09
13013;BME280;22580;57.670;12.006;2023-04-16T11:57:06;102269.31;;;23.47;29.39
13013;BME280;22580;57.670;12.006;2023-04-16T11:59:33;102250.34;;;22.65;29.89
13013;BME280;22580;57.670;12.006;2023-04-16T12:02:02;102256.84;;;23.44;29.30
13013;BME280;22580;57.670;12.006;2023-04-16T12:04:32;102260.22;;;23.20;28.62
13013;BME280;22580;57.670;12.006;2023-04-16T12:07:06;102238.06;;;23.77;28.71
13013;BME280;22580;57.670;12.006;2023-04-16T12:09:34;102258.03;;;23.42;28.60
13013;BME280;22580;57.670;12.006;2023-04-16T12:12:02;102265.19;;;23.78;28.37
13013;BME280;22580;57.670;12.006;2023-04-16T12:14:30;102234.06;;;24.15;28.26
13013;BME280;22580;57.670;12.006;2023-04-16T12:17:19;102265.34;;;24.21;27.81
13013;BME280;22580;57.670;12.006;2023-04-16T12:19:50;102267.00;;;23.70;28.83
13013;BME280;22580;57.670;12.006;2023-04-16T12:22:25;102261.56;;;22.89;29.45
13013;BME280;22580;57.670;12.006;2023-04-16T12:24:55;102261.91;;;23.93;28.40
13013;BME280;22580;57.670;12.006;2023-04-16T12:27:24;102255.16;;;24.31;27.31
13013;BME280;22580;57.670;12.006;2023-04-16T12:30:03;102262.53;;;24.38;27.38
13013;BME280;22580;57.670;12.006;2023-04-16T12:32:32;102253.22;;;24.49;27.06
13013;BME280;22580;57.670;12.006;2023-04-16T12:35:02;102254.13;;;24.66;26.80
13013;BME280;22580;57.670;12.006;2023-04-16T12:37:29;102262.19;;;24.33;26.93
13013;BME280;22580;57.670;12.006;2023-04-16T12:39:57;102218.88;;;24.21;27.05
13013;BME280;22580;57.670;12.006;2023-04-16T12:42:24;102251.84;;;24.53;26.87
13013;BME280;22580;57.670;12.006;2023-04-16T12:44:51;102249.03;;;24.37;26.78